Time;durP1;ratioP1;P1;durP2;ratioP2;P2;SDS_P1;SDS_P2;PMS_P1;PMS_P2;Temp;Humidity;BMP_temperature;BMP_pressure;BME280_temperature;BME280_humidity;BME280_pressure;Samples;Min_cycle;Max_cycle;Signal;HPM_P1;HPM_P2
2024/02/04 00:00:28;;;;;;;2.60;1.63;;;9.00;99.90;8.90;100768.00;;;;4896251;28;113214;-65
2024/02/04 00:02:53;;;;;;;3.07;2.27;;;9.00;99.90;8.90;100769.00;;;;4895785;28;109402;-65
2024/02/04 00:05:19;;;;;;;2.67;2.33;;;9.00;99.90;8.90;100754.00;;;;4898074;28;96598;-66
2024/02/04 00:07:45;;;;;;;5.10;2.00;;;9.00;99.90;8.90;100764.00;;;;4892906;28;94988;-65
2024/02/04 00:10:11;;;;;;;2.13;1.67;;;9.00;99.90;8.90;100755.00;;;;4899155;28;124073;-66
2024/02/04 00:12:39;;;;;;;3.00;1.97;;;9.00;99.90;8.90;100748.00;;;;4899978;28;92829;-67
2024/02/04 00:15:04;;;;;;;1.70;1.60;;;9.00;99.90;8.90;100752.00;;;;4898014;28;92948;-65
2024/02/04 00:17:32;;;;;;;2.53;1.63;;;9.10;99.90;8.90;100751.00;;;;4896123;28;116196;-65
2024/02/04 00:20:03;;;;;;;2.67;1.73;;;9.10;99.90;9.00;100756.00;;;;4898400;28;93878;-66
2024/02/04 00:22:29;;;;;;;3.47;1.83;;;9.00;99.90;9.00;100767.00;;;;4901028;28;92869;-66
2024/02/04 00:24:54;;;;;;;1.77;1.57;;;9.10;99.90;9.00;100776.00;;;;4912356;28;106367;-65
2024/02/04 00:27:20;;;;;;;1.80;1.60;;;9.10;99.90;9.00;100801.00;;;;4898679;28;93719;-64
2024/02/04 00:29:46;;;;;;;1.83;1.50;;;9.10;99.90;9.00;100797.00;;;;4895724;28;121227;-64
2024/02/04 00:32:11;;;;;;;1.57;1.23;;;9.10;99.90;8.90;100796.00;;;;4894900;28;107799;-62
2024/02/04 00:34:37;;;;;;;2.27;1.47;;;9.10;99.90;8.80;100812.00;;;;4898036;28;108678;-64
2024/02/04 00:37:03;;;;;;;0.77;0.57;;;9.00;99.90;8.80;100792.00;;;;4895638;28;122325;-63
2024/02/04 00:39:28;;;;;;;0.90;0.83;;;8.90;99.90;8.70;100785.00;;;;4897444;28;94023;-64
2024/02/04 00:41:54;;;;;;;1.27;0.77;;;8.80;99.90;8.60;100791.00;;;;4895782;28;110402;-64
2024/02/04 00:44:20;;;;;;;1.00;0.90;;;8.70;99.90;8.50;100794.00;;;;4892840;28;92930;-66
2024/02/04 00:46:45;;;;;;;1.70;0.80;;;8.60;99.90;8.40;100793.00;;;;4890524;28;120539;-65
2024/02/04 00:49:11;;;;;;;1.40;0.97;;;8.60;99.90;8.40;100794.00;;;;4896617;28;93439;-64
2024/02/04 00:51:37;;;;;;;2.53;0.80;;;8.60;99.90;8.30;100777.00;;;;4900136;28;109425;-66
2024/02/04 00:54:02;;;;;;;0.40;0.40;;;9.40;99.90;8.20;100782.00;;;;4897571;28;108617;-66
2024/02/04 00:56:28;;;;;;;0.63;0.53;;;8.40;99.90;8.10;100786.00;;;;4895650;28;123960;-65
2024/02/04 00:58:54;;;;;;;0.90;0.50;;;8.20;99.90;8.00;100789.00;;;;4893935;28;123306;-65
2024/02/04 01:01:20;;;;;;;1.13;0.70;;;8.20;99.90;7.90;100786.00;;;;4894140;28;94817;-64
2024/02/04 01:03:46;;;;;;;0.47;0.40;;;8.10;99.90;7.80;100781.00;;;;4894267;28;92879;-65
2024/02/04 01:06:11;;;;;;;0.60;0.40;;;8.00;99.90;7.80;100790.00;;;;4894917;28;93858;-65
2024/02/04 01:08:37;;;;;;;0.27;0.27;;;7.90;99.90;7.70;100793.00;;;;4896691;28;122576;-65
2024/02/04 01:11:05;;;;;;;0.60;0.50;;;7.80;99.90;7.60;100797.00;;;;4896380;28;101002;-65
2024/02/04 01:13:31;;;;;;;4.43;0.40;;;7.80;99.90;7.60;100792.00;;;;4897811;28;92025;-65
2024/02/04 01:15:56;;;;;;;0.87;0.60;;;7.70;99.90;7.50;100793.00;;;;4896961;28;123091;-65
2024/02/04 01:18:22;;;;;;;0.93;0.50;;;7.70;99.90;7.50;100802.00;;;;4894373;28;122823;-65
2024/02/04 01:20:48;;;;;;;0.73;0.73;;;7.70;99.90;7.40;100792.00;;;;4897885;28;101827;-65
2024/02/04 01:23:17;;;;;;;0.53;0.53;;;7.70;99.90;7.50;100787.00;;;;4898871;28;93205;-65
2024/02/04 01:25:43;;;;;;;0.97;0.70;;;7.60;99.90;7.50;100779.00;;;;4895173;28;93195;-65
2024/02/04 01:28:09;;;;;;;0.73;0.67;;;7.60;99.90;7.50;100782.00;;;;4895411;28;112330;-65
2024/02/04 01:30:35;;;;;;;1.53;0.60;;;7.60;99.90;7.50;100794.00;;;;4898420;28;93640;-65
2024/02/04 01:33:00;;;;;;;0.73;0.63;;;7.60;99.90;7.40;100794.00;;;;4895428;28;94107;-64
2024/02/04 01:35:26;;;;;;;1.60;0.67;;;7.60;99.90;7.40;100788.00;;;;4896260;28;112613;-65
2024/02/04 01:37:52;;;;;;;1.00;0.67;;;7.60;99.90;7.30;100797.00;;;;4898320;28;92589;-64
2024/02/04 01:40:17;;;;;;;1.27;0.80;;;8.10;99.90;7.30;100789.00;;;;4896585;28;92939;-64
2024/02/04 01:42:44;;;;;;;1.17;0.63;;;7.40;99.90;7.30;100782.00;;;;4895337;28;92831;-65
2024/02/04 01:45:10;;;;;;;1.73;0.80;;;7.50;99.90;7.30;100772.00;;;;4895661;28;94766;-64
2024/02/04 01:47:36;;;;;;;3.00;0.87;;;7.40;99.90;7.40;100754.00;;;;4894575;28;94742;-64
2024/02/04 01:50:04;;;;;;;1.97;0.70;;;7.50;99.90;7.40;100760.00;;;;4908194;28;110474;-64
2024/02/04 01:52:32;;;;;;;0.50;0.50;;;7.60;99.90;7.40;100757.00;;;;4895150;28;92982;-64
2024/02/04 01:54:59;;;;;;;1.47;0.77;;;7.60;99.90;7.50;100754.00;;;;4892892;28;92945;-64
2024/02/04 01:57:24;;;;;;;3.37;1.20;;;7.60;99.90;7.50;100746.00;;;;4907954;28;93070;-64
2024/02/04 01:59:53;;;;;;;1.13;0.80;;;7.60;99.90;7.50;100765.00;;;;4894391;28;110323;-64
2024/02/04 02:02:19;;;;;;;0.80;0.60;;;7.70;99.90;7.60;100765.00;;;;4911652;28;92206;-64
2024/02/04 02:04:46;;;;;;;1.13;0.93;;;7.70;99.90;7.60;100764.00;;;;4897464;28;121778;-65
2024/02/04 02:07:15;;;;;;;0.43;0.43;;;7.70;99.90;7.60;100761.00;;;;4900605;28;104774;-64
2024/02/04 02:09:41;;;;;;;0.80;0.77;;;7.70;99.90;7.60;100765.00;;;;4894502;28;94450;-64
2024/02/04 02:12:14;;;;;;;3.83;1.40;;;7.80;99.90;7.60;100761.00;;;;4900038;28;92807;-65
2024/02/04 02:14:50;;;;;;;2.57;1.20;;;7.80;99.90;7.70;100766.00;;;;4896255;28;93147;-64
2024/02/04 02:17:22;;;;;;;3.70;1.43;;;7.80;99.90;7.70;100774.00;;;;4899835;28;93417;-64
2024/02/04 02:19:58;;;;;;;2.70;0.80;;;7.70;99.90;7.70;100778.00;;;;4901204;28;92658;-64
2024/02/04 02:22:35;;;;;;;1.50;1.40;;;7.90;99.90;7.70;100777.00;;;;4896207;28;100136;-65
2024/02/04 02:25:02;;;;;;;1.23;0.97;;;7.80;99.90;7.70;100765.00;;;;4889729;28;114170;-64
2024/02/04 02:27:27;;;;;;;1.23;1.13;;;7.90;99.90;7.80;100785.00;;;;4897830;28;93421;-64
2024/02/04 02:29:53;;;;;;;1.10;1.00;;;7.90;99.90;7.80;100770.00;;;;4897669;28;96548;-64
2024/02/04 02:32:20;;;;;;;1.73;1.10;;;7.90;99.90;7.80;100780.00;;;;4896868;28;108551;-64
2024/02/04 02:34:46;;;;;;;2.20;1.23;;;8.00;99.90;7.80;100785.00;;;;4897912;28;94998;-65
2024/02/04 02:37:35;;;;;;;1.63;1.00;;;7.90;99.90;7.80;100785.00;;;;4898162;28;121109;-64
2024/02/04 02:40:21;;;;;;;2.73;1.70;;;8.00;99.90;7.90;100779.00;;;;4899685;28;93027;-64
2024/02/04 02:42:48;;;;;;;1.90;1.17;;;8.00;99.90;7.90;100782.00;;;;4896772;28;95637;-64
2024/02/04 02:45:17;;;;;;;3.47;1.83;;;8.00;99.90;7.90;100768.00;;;;4892453;28;123019;-64
2024/02/04 02:47:43;;;;;;;3.37;2.00;;;8.00;99.90;7.90;100770.00;;;;4892316;28;96729;-64
2024/02/04 02:50:09;;;;;;;4.47;2.37;;;8.10;99.90;7.90;100775.00;;;;4896785;28;111040;-64
2024/02/04 02:52:35;;;;;;;2.37;1.50;;;8.10;99.90;7.90;100765.00;;;;4899066;28;92094;-64
2024/02/04 02:55:01;;;;;;;2.17;1.97;;;8.00;99.90;7.90;100762.00;;;;4896115;28;118997;-65
2024/02/04 02:57:26;;;;;;;1.93;1.70;;;8.10;99.90;7.90;100765.00;;;;4894740;28;122725;-64
2024/02/04 02:59:52;;;;;;;1.83;1.40;;;8.10;99.90;8.00;100763.00;;;;4897989;28;110564;-65
2024/02/04 03:02:17;;;;;;;2.27;1.80;;;8.10;99.90;8.00;100755.00;;;;4895562;28;108383;-64
2024/02/04 03:04:43;;;;;;;5.90;2.27;;;8.10;99.90;8.00;100756.00;;;;4897786;28;122267;-65
2024/02/04 03:07:09;;;;;;;2.30;2.10;;;8.10;99.90;8.00;100758.00;;;;4895446;28;123562;-65
2024/02/04 03:09:34;;;;;;;3.00;1.87;;;8.20;99.90;8.00;100738.00;;;;4894931;28;109106;-65
2024/02/04 03:12:00;;;;;;;2.93;2.17;;;8.10;99.90;8.00;100738.00;;;;4896930;28;94203;-64
2024/02/04 03:14:26;;;;;;;1.20;1.10;;;8.10;99.90;8.00;100755.00;;;;4897027;28;123616;-65
2024/02/04 03:16:51;;;;;;;2.67;2.30;;;8.70;99.90;8.00;100737.00;;;;4899284;28;118759;-65
2024/02/04 03:19:17;;;;;;;2.83;1.80;;;8.20;99.90;8.10;100746.00;;;;4895602;28;109679;-65
2024/02/04 03:21:43;;;;;;;3.63;2.03;;;8.20;99.90;8.10;100736.00;;;;4896473;28;109191;-66
2024/02/04 03:24:08;;;;;;;3.13;2.07;;;8.20;99.90;8.10;100745.00;;;;4894654;28;125706;-66
2024/02/04 03:26:34;;;;;;;3.97;2.23;;;8.20;99.90;8.10;100744.00;;;;4894531;28;99266;-66
2024/02/04 03:29:00;;;;;;;3.13;1.80;;;8.20;99.90;8.10;100745.00;;;;4896021;28;99892;-65
2024/02/04 03:31:25;;;;;;;2.97;1.87;;;8.50;99.90;8.10;100750.00;;;;4900805;28;93250;-66
2024/02/04 03:33:51;;;;;;;4.07;2.30;;;8.30;99.90;8.10;100742.00;;;;4894487;28;122549;-66
2024/02/04 03:36:24;;;;;;;2.27;1.60;;;8.30;99.90;8.10;100757.00;;;;4894382;28;122662;-65
2024/02/04 03:38:50;;;;;;;3.57;2.07;;;8.30;99.90;8.20;100765.00;;;;4901557;28;93228;-66
2024/02/04 03:41:16;;;;;;;2.90;1.63;;;8.30;99.90;8.20;100763.00;;;;4897047;28;92313;-67
2024/02/04 03:43:42;;;;;;;5.23;1.97;;;8.40;99.90;8.10;100754.00;;;;4896221;28;113220;-67
2024/02/04 03:46:08;;;;;;;4.33;2.23;;;8.30;99.90;8.00;100759.00;;;;4890584;28;106690;-67
2024/02/04 03:48:35;;;;;;;4.53;1.93;;;8.20;99.90;7.90;100769.00;;;;4893984;28;110043;-67
2024/02/04 03:51:01;;;;;;;2.50;1.90;;;8.10;99.90;7.90;100755.00;;;;4894825;28;93564;-67
2024/02/04 03:53:27;;;;;;;3.57;2.17;;;8.10;99.90;7.90;100769.00;;;;4894027;28;93563;-66
2024/02/04 03:55:52;;;;;;;2.13;1.40;;;8.10;99.90;7.80;100770.00;;;;4894646;28;122601;-67
2024/02/04 03:58:20;;;;;;;3.63;1.40;;;8.00;99.90;7.80;100767.00;;;;4896897;28;109377;-67
2024/02/04 04:00:46;;;;;;;2.67;1.60;;;8.00;99.90;7.80;100765.00;;;;4897774;28;108275;-67
2024/02/04 04:03:11;;;;;;;2.40;1.40;;;8.60;99.90;7.80;100771.00;;;;4897898;28;121945;-67
2024/02/04 04:05:37;;;;;;;2.30;1.67;;;8.00;99.90;7.70;100765.00;;;;4896993;28;123168;-67
2024/02/04 04:08:03;;;;;;;1.90;1.73;;;7.90;99.90;7.70;100754.00;;;;4900212;28;108737;-67
2024/02/04 04:10:28;;;;;;;1.57;1.47;;;7.80;99.90;7.60;100760.00;;;;4899089;28;100134;-67
2024/02/04 04:12:54;;;;;;;3.97;2.00;;;7.80;99.90;7.50;100755.00;;;;4897055;28;123431;-68
2024/02/04 04:15:20;;;;;;;4.57;1.53;;;7.80;99.90;7.50;100748.00;;;;4891213;28;121106;-68
2024/02/04 04:17:46;;;;;;;3.50;2.17;;;7.70;99.90;7.50;100739.00;;;;4894088;28;109687;-68
2024/02/04 04:20:11;;;;;;;3.13;2.07;;;7.60;99.90;7.40;100743.00;;;;4895405;28;92783;-70
2024/02/04 04:22:40;;;;;;;3.57;2.23;;;7.60;99.90;7.40;100744.00;;;;4895373;28;123031;-68
2024/02/04 04:25:10;;;;;;;2.77;2.10;;;7.60;99.90;7.30;100744.00;;;;4897470;28;94463;-68
2024/02/04 04:27:35;;;;;;;4.53;1.80;;;7.50;99.90;7.30;100742.00;;;;4897792;28;93268;-68
2024/02/04 04:30:01;;;;;;;3.87;2.23;;;7.50;99.90;7.40;100745.00;;;;4895895;28;107755;-67
2024/02/04 04:32:26;;;;;;;4.10;1.90;;;7.50;99.90;7.40;100745.00;;;;4898634;28;123026;-68
2024/02/04 04:34:55;;;;;;;3.37;2.33;;;7.50;99.90;7.50;100742.00;;;;4899145;28;121781;-68
2024/02/04 04:37:20;;;;;;;5.10;2.97;;;7.90;99.90;7.60;100748.00;;;;4896361;28;94106;-66
2024/02/04 04:39:46;;;;;;;2.37;1.80;;;7.60;99.90;7.60;100745.00;;;;4894104;28;109605;-67
2024/02/04 04:42:12;;;;;;;3.00;2.13;;;7.70;99.90;7.60;100733.00;;;;4897029;28;121933;-67
2024/02/04 04:44:37;;;;;;;2.27;1.90;;;7.80;99.90;7.70;100735.00;;;;4893826;28;122545;-66
2024/02/04 04:47:04;;;;;;;3.30;2.27;;;7.80;99.90;7.70;100722.00;;;;4894010;28;109414;-67
2024/02/04 04:49:29;;;;;;;2.53;1.83;;;7.90;99.90;7.70;100717.00;;;;4897287;28;92867;-65
2024/02/04 04:51:55;;;;;;;4.90;2.07;;;7.90;99.90;7.70;100726.00;;;;4893118;28;123779;-65
2024/02/04 04:54:21;;;;;;;3.87;2.13;;;7.80;99.90;7.70;100724.00;;;;4892792;28;103346;-66
2024/02/04 04:56:46;;;;;;;7.63;2.77;;;7.80;99.90;7.60;100718.00;;;;4895262;28;92921;-66
2024/02/04 04:59:12;;;;;;;5.47;2.30;;;7.80;99.90;7.60;100703.00;;;;4895548;28;107824;-66
2024/02/04 05:01:48;;;;;;;2.50;1.47;;;7.80;99.90;7.60;100711.00;;;;4893870;28;94950;-66
2024/02/04 05:04:15;;;;;;;2.63;2.23;;;7.80;99.90;7.60;100703.00;;;;4893875;28;94013;-65
2024/02/04 05:06:41;;;;;;;2.47;1.30;;;7.80;99.90;7.60;100699.00;;;;4898009;28;93078;-66
2024/02/04 05:09:07;;;;;;;2.87;1.60;;;7.80;99.90;7.60;100706.00;;;;4897509;28;92952;-66
2024/02/04 05:11:32;;;;;;;3.63;2.17;;;7.80;99.90;7.70;100706.00;;;;4893693;28;93136;-66
2024/02/04 05:13:58;;;;;;;6.07;2.37;;;7.70;99.90;7.70;100689.00;;;;4893849;28;120969;-66
2024/02/04 05:16:23;;;;;;;3.27;2.07;;;7.80;99.90;7.70;100680.00;;;;4895960;28;92978;-65
2024/02/04 05:18:49;;;;;;;1.93;1.60;;;7.80;99.90;7.70;100662.00;;;;4896695;28;108345;-65
2024/02/04 05:21:15;;;;;;;2.07;1.60;;;7.90;99.90;7.80;100690.00;;;;4895673;28;124155;-66
2024/02/04 05:23:40;;;;;;;3.33;1.43;;;8.00;99.90;7.80;100677.00;;;;4889029;28;122281;-65
2024/02/04 05:26:06;;;;;;;2.97;1.83;;;7.90;99.90;7.80;100675.00;;;;4892499;28;111132;-66
2024/02/04 05:28:32;;;;;;;2.20;1.50;;;8.10;99.90;7.90;100677.00;;;;4899415;28;92935;-65
2024/02/04 05:30:58;;;;;;;3.53;2.07;;;8.00;99.90;7.90;100676.00;;;;4896260;28;110047;-66
2024/02/04 05:33:24;;;;;;;3.10;2.33;;;8.10;99.90;7.90;100683.00;;;;4891813;28;96063;-67
2024/02/04 05:35:49;;;;;;;3.43;2.43;;;8.10;99.90;8.00;100681.00;;;;4894562;28;109883;-67
2024/02/04 05:38:16;;;;;;;2.37;1.90;;;8.10;99.90;8.00;100685.00;;;;4894299;28;108659;-66
2024/02/04 05:40:42;;;;;;;3.80;1.80;;;8.20;99.90;8.10;100675.00;;;;4893196;28;110628;-67
2024/02/04 05:43:10;;;;;;;4.20;2.07;;;8.20;99.90;8.10;100668.00;;;;4893626;28;92360;-66
2024/02/04 05:45:37;;;;;;;3.87;2.43;;;8.20;99.90;8.20;100679.00;;;;4899508;28;92760;-65
2024/02/04 05:48:03;;;;;;;5.23;2.37;;;8.30;99.90;8.20;100673.00;;;;4896770;28;92807;-65
2024/02/04 05:50:28;;;;;;;3.30;2.20;;;8.40;99.90;8.30;100675.00;;;;4895684;28;116677;-65
2024/02/04 05:52:54;;;;;;;5.33;3.03;;;8.30;99.90;8.30;100670.00;;;;4891470;28;124017;-65
2024/02/04 05:55:20;;;;;;;4.87;3.00;;;8.40;99.90;8.30;100665.00;;;;4892089;28;93955;-65
2024/02/04 05:57:45;;;;;;;3.40;2.93;;;8.50;99.90;8.40;100655.00;;;;4893446;28;107022;-65
2024/02/04 06:00:13;;;;;;;2.23;2.03;;;8.50;99.90;8.40;100668.00;;;;4897642;28;121035;-66
2024/02/04 06:02:38;;;;;;;5.47;2.80;;;8.50;99.90;8.40;100667.00;;;;4895485;28;93117;-66
2024/02/04 06:05:05;;;;;;;7.60;2.57;;;8.50;99.90;8.40;100640.00;;;;4897041;28;93296;-66
2024/02/04 06:07:31;;;;;;;3.57;2.30;;;8.60;99.90;8.50;100660.00;;;;4911606;28;92111;-66
2024/02/04 06:09:57;;;;;;;8.67;2.93;;;8.60;99.90;8.50;100657.00;;;;4894315;28;122228;-66
2024/02/04 06:12:23;;;;;;;3.87;2.37;;;8.60;99.90;8.50;100652.00;;;;4896189;28;93656;-67
2024/02/04 06:14:48;;;;;;;5.83;3.30;;;8.60;99.90;8.50;100655.00;;;;4896277;28;110508;-67
2024/02/04 06:17:14;;;;;;;3.93;2.83;;;8.60;99.90;8.50;100656.00;;;;4894431;28;92765;-67
2024/02/04 06:19:39;;;;;;;8.47;3.37;;;8.60;99.90;8.50;100650.00;;;;4895687;28;122557;-66
2024/02/04 06:22:05;;;;;;;3.20;2.43;;;8.70;99.90;8.50;100645.00;;;;4892950;28;120514;-67
2024/02/04 06:24:31;;;;;;;6.70;3.07;;;8.70;99.90;8.50;100644.00;;;;4895025;28;93134;-66
2024/02/04 06:26:57;;;;;;;4.40;2.87;;;8.60;99.90;8.50;100654.00;;;;4894981;28;112080;-66
2024/02/04 06:29:22;;;;;;;5.43;3.10;;;8.70;99.90;8.50;100645.00;;;;4892400;28;110417;-67
2024/02/04 06:31:48;;;;;;;3.20;2.90;;;8.60;99.90;8.50;100637.00;;;;4895083;28;122450;-66
2024/02/04 06:34:13;;;;;;;3.10;2.33;;;8.70;99.90;8.50;100635.00;;;;4893435;28;110651;-67
2024/02/04 06:36:44;;;;;;;5.40;2.97;;;8.60;99.90;8.50;100634.00;;;;4893601;28;109414;-65
2024/02/04 06:39:09;;;;;;;5.93;3.33;;;8.60;99.90;8.50;100645.00;;;;4891621;28;94455;-67
2024/02/04 06:41:35;;;;;;;7.87;3.27;;;8.60;99.90;8.50;100643.00;;;;4895099;28;102731;-66
2024/02/04 06:44:03;;;;;;;4.47;3.00;;;8.60;99.90;8.50;100646.00;;;;4894775;28;110225;-66
2024/02/04 06:46:29;;;;;;;5.57;2.83;;;8.60;99.90;8.40;100639.00;;;;4897276;28;92923;-67
2024/02/04 06:48:55;;;;;;;3.23;2.33;;;8.70;99.90;8.40;100648.00;;;;4900186;28;93230;-66
2024/02/04 06:51:21;;;;;;;5.77;2.97;;;9.20;99.90;8.40;100646.00;;;;4895403;28;94068;-66
2024/02/04 06:53:47;;;;;;;3.53;2.10;;;8.60;99.90;8.40;100643.00;;;;4895599;28;92755;-66
2024/02/04 06:56:13;;;;;;;3.80;2.57;;;8.60;99.90;8.40;100635.00;;;;4896661;28;109678;-67
2024/02/04 06:58:42;;;;;;;3.93;2.90;;;8.50;99.90;8.40;100624.00;;;;4897072;28;104868;-65
2024/02/04 07:01:08;;;;;;;3.43;2.33;;;8.50;99.90;8.40;100624.00;;;;4897522;28;94264;-65
2024/02/04 07:03:34;;;;;;;4.00;2.93;;;8.50;99.90;8.40;100613.00;;;;4895929;28;96074;-66
2024/02/04 07:06:00;;;;;;;3.93;2.83;;;8.60;99.90;8.50;100622.00;;;;4898028;28;100912;-67
2024/02/04 07:08:26;;;;;;;4.90;3.30;;;8.60;99.90;8.50;100624.00;;;;4897580;28;100157;-67
2024/02/04 07:10:52;;;;;;;3.73;2.50;;;8.60;99.90;8.50;100632.00;;;;4897617;28;113720;-67
2024/02/04 07:13:18;;;;;;;5.03;2.83;;;8.70;99.90;8.50;100630.00;;;;4899316;28;101637;-67
2024/02/04 07:15:44;;;;;;;5.23;2.63;;;8.60;99.90;8.60;100630.00;;;;4895960;28;96478;-69
2024/02/04 07:18:11;;;;;;;5.73;3.13;;;8.70;99.90;8.60;100626.00;;;;4890668;28;110694;-67
2024/02/04 07:20:37;;;;;;;6.17;3.00;;;8.60;99.90;8.50;100627.00;;;;4892770;28;93988;-65
2024/02/04 07:23:04;;;;;;;5.33;3.00;;;8.60;99.90;8.50;100623.00;;;;4891969;28;92953;-66
2024/02/04 07:25:30;;;;;;;5.03;3.77;;;8.60;99.90;8.50;100621.00;;;;4892096;28;93159;-65
2024/02/04 07:27:56;;;;;;;5.27;2.53;;;8.60;99.90;8.50;100624.00;;;;4892165;28;124003;-65
2024/02/04 07:30:22;;;;;;;3.40;2.70;;;8.60;99.90;8.50;100613.00;;;;4895070;28;94808;-66
2024/02/04 07:32:47;;;;;;;2.40;2.20;;;8.60;99.90;8.50;100632.00;;;;4895028;28;110044;-65
2024/02/04 07:35:13;;;;;;;3.63;2.93;;;8.60;99.90;8.40;100624.00;;;;4893673;28;109051;-65
2024/02/04 07:37:39;;;;;;;3.13;2.50;;;8.60;99.90;8.40;100624.00;;;;4892851;28;123852;-66
2024/02/04 07:40:06;;;;;;;4.57;3.20;;;8.60;99.90;8.40;100612.00;;;;4892498;28;93567;-66
2024/02/04 07:42:32;;;;;;;3.47;2.27;;;8.60;99.90;8.40;100606.00;;;;4891864;28;93339;-67
2024/02/04 07:44:58;;;;;;;6.50;2.93;;;8.50;99.90;8.40;100619.00;;;;4896521;28;92475;-66
2024/02/04 07:47:23;;;;;;;3.47;2.80;;;8.50;99.90;8.40;100614.00;;;;4891149;28;101906;-67
2024/02/04 07:49:50;;;;;;;3.37;2.33;;;8.50;99.90;8.40;100622.00;;;;4890972;28;120823;-67
2024/02/04 07:52:16;;;;;;;4.07;2.23;;;8.50;99.90;8.40;100608.00;;;;4890711;28;99459;-66
2024/02/04 07:54:46;;;;;;;3.17;2.27;;;8.50;99.90;8.40;100602.00;;;;4893616;28;93588;-66
2024/02/04 07:57:12;;;;;;;3.80;2.80;;;8.50;99.90;8.40;100618.00;;;;4892449;28;92981;-66
2024/02/04 07:59:38;;;;;;;3.20;2.40;;;8.50;99.90;8.40;100616.00;;;;4894278;28;105564;-66
2024/02/04 08:02:03;;;;;;;3.50;2.50;;;8.50;99.90;8.40;100605.00;;;;4890654;28;93062;-68
2024/02/04 08:04:29;;;;;;;4.67;2.40;;;8.40;99.90;8.40;100617.00;;;;4894633;28;97633;-67
2024/02/04 08:06:55;;;;;;;3.50;2.20;;;8.50;99.90;8.50;100624.00;;;;4887112;28;123229;-67
2024/02/04 08:09:20;;;;;;;2.80;2.53;;;8.60;99.90;8.50;100624.00;;;;4893223;28;122769;-68
2024/02/04 08:11:47;;;;;;;4.13;2.73;;;8.60;99.90;8.50;100625.00;;;;4895370;28;109735;-66
2024/02/04 08:14:14;;;;;;;2.80;1.93;;;8.60;99.90;8.50;100615.00;;;;4901397;28;92846;-66
2024/02/04 08:16:40;;;;;;;3.60;2.13;;;8.60;99.90;8.60;100604.00;;;;4896216;28;95319;-65
2024/02/04 08:19:06;;;;;;;3.67;3.23;;;8.60;99.90;8.60;100597.00;;;;4891516;28;112909;-65
2024/02/04 08:21:32;;;;;;;1.90;1.77;;;8.70;99.90;8.60;100603.00;;;;4892612;28;92969;-65
2024/02/04 08:23:58;;;;;;;2.83;2.10;;;8.70;99.90;8.60;100601.00;;;;4891059;28;92863;-66
2024/02/04 08:26:24;;;;;;;3.57;2.30;;;8.80;99.90;8.60;100595.00;;;;4889412;28;95883;-67
2024/02/04 08:28:50;;;;;;;3.50;2.20;;;8.70;99.90;8.70;100608.00;;;;4895053;28;93256;-66
2024/02/04 08:31:16;;;;;;;3.27;2.63;;;8.80;99.90;8.70;100609.00;;;;4894648;28;99756;-66
2024/02/04 08:33:42;;;;;;;2.93;2.30;;;8.80;99.90;8.80;100607.00;;;;4894419;28;92335;-67
2024/02/04 08:36:10;;;;;;;3.60;2.40;;;8.90;99.90;8.80;100608.00;;;;4894641;28;109148;-67
2024/02/04 08:38:37;;;;;;;3.00;2.17;;;8.90;99.90;8.90;100599.00;;;;4893270;28;93815;-66
2024/02/04 08:41:03;;;;;;;3.53;2.33;;;9.00;99.90;8.90;100611.00;;;;4894926;28;97302;-67
2024/02/04 08:43:29;;;;;;;3.20;2.73;;;9.00;99.90;9.00;100607.00;;;;4889076;28;93439;-67
2024/02/04 08:45:55;;;;;;;3.43;2.47;;;9.00;99.90;9.00;100617.00;;;;4892614;28;123642;-67
2024/02/04 08:48:20;;;;;;;4.10;2.63;;;9.10;99.90;9.00;100607.00;;;;4890270;28;121102;-67
2024/02/04 08:50:46;;;;;;;3.00;1.97;;;9.10;99.90;9.00;100599.00;;;;4891776;28;109831;-67
2024/02/04 08:53:12;;;;;;;6.07;2.53;;;9.10;99.90;9.00;100589.00;;;;4891489;28;93007;-67
2024/02/04 08:55:37;;;;;;;2.57;1.80;;;9.20;99.90;9.10;100582.00;;;;4891410;28;122688;-66
2024/02/04 08:58:03;;;;;;;1.83;1.67;;;9.20;99.90;9.10;100592.00;;;;4888276;28;122663;-66
2024/02/04 09:00:29;;;;;;;4.13;2.20;;;9.20;99.90;9.10;100598.00;;;;4890710;28;108202;-66
2024/02/04 09:02:55;;;;;;;1.83;1.40;;;9.30;99.90;9.20;100600.00;;;;4901464;28;109570;-67
2024/02/04 09:05:23;;;;;;;2.93;1.90;;;9.30;99.90;9.20;100592.00;;;;4893119;28;95083;-67
2024/02/04 09:07:49;;;;;;;6.10;2.07;;;9.30;99.90;9.20;100603.00;;;;4889530;28;94220;-67
2024/02/04 09:10:15;;;;;;;1.63;1.20;;;9.30;99.90;9.30;100590.00;;;;4889258;28;93107;-67
2024/02/04 09:12:40;;;;;;;2.17;1.30;;;9.40;99.90;9.30;100593.00;;;;4894524;28;109296;-67
2024/02/04 09:15:10;;;;;;;3.23;1.90;;;9.40;99.90;9.30;100591.00;;;;4894361;28;119291;-67
2024/02/04 09:17:35;;;;;;;2.70;2.10;;;9.50;99.90;9.40;100578.00;;;;4889613;28;112794;-67
2024/02/04 09:20:02;;;;;;;2.87;2.00;;;9.50;99.90;9.40;100581.00;;;;4893065;28;93216;-66
2024/02/04 09:22:27;;;;;;;2.80;1.40;;;9.50;99.90;9.40;100586.00;;;;4888611;28;92361;-67
2024/02/04 09:24:54;;;;;;;2.57;1.90;;;9.50;99.90;9.40;100574.00;;;;4891085;28;100563;-66
2024/02/04 09:27:19;;;;;;;2.73;1.53;;;9.60;99.90;9.50;100576.00;;;;4891469;28;102587;-66
2024/02/04 09:29:45;;;;;;;2.90;1.27;;;9.60;99.90;9.50;100570.00;;;;4890458;28;94516;-67
2024/02/04 09:32:11;;;;;;;1.93;1.17;;;9.60;99.90;9.50;100573.00;;;;4892560;28;109098;-66
2024/02/04 09:34:36;;;;;;;4.07;1.90;;;9.60;99.90;9.50;100568.00;;;;4888957;28;121904;-67
2024/02/04 09:37:02;;;;;;;1.33;1.20;;;9.60;99.90;9.50;100570.00;;;;4907016;28;94131;-67
2024/02/04 09:39:29;;;;;;;3.17;1.30;;;9.60;99.90;9.50;100575.00;;;;4892995;28;93104;-67
2024/02/04 09:41:55;;;;;;;1.53;1.17;;;9.60;99.90;9.50;100562.00;;;;4891401;28;93059;-68
2024/02/04 09:44:22;;;;;;;1.70;1.60;;;9.50;99.90;9.50;100569.00;;;;4890666;28;93675;-67
2024/02/04 09:46:48;;;;;;;2.03;1.17;;;9.60;99.90;9.50;100564.00;;;;4890211;28;114288;-67
2024/02/04 09:49:15;;;;;;;3.73;1.13;;;9.00;99.90;9.50;100572.00;;;;4891532;28;110698;-68
2024/02/04 09:51:41;;;;;;;1.90;1.17;;;9.70;99.90;9.50;100552.00;;;;4893990;28;104404;-68
2024/02/04 09:54:10;;;;;;;3.23;1.60;;;9.70;99.90;9.50;100561.00;;;;4889822;28;94106;-67
2024/02/04 09:56:38;;;;;;;1.33;1.23;;;9.60;99.90;9.50;100551.00;;;;4892429;28;94692;-68
2024/02/04 09:59:04;;;;;;;2.30;1.50;;;9.60;99.90;9.50;100541.00;;;;4891672;28;93234;-67
2024/02/04 10:01:31;;;;;;;1.23;1.10;;;9.60;99.90;9.50;100556.00;;;;4891470;28;109093;-67
2024/02/04 10:03:58;;;;;;;1.20;1.00;;;9.60;99.90;9.50;100565.00;;;;4891921;28;123458;-68
2024/02/04 10:06:24;;;;;;;2.37;1.37;;;9.60;99.90;9.40;100564.00;;;;4888139;28;94189;-67
2024/02/04 10:08:50;;;;;;;1.93;1.20;;;9.60;99.90;9.40;100569.00;;;;4892315;28;92959;-67
2024/02/04 10:11:16;;;;;;;1.60;1.07;;;9.60;99.90;9.50;100556.00;;;;4888510;28;99473;-67
2024/02/04 10:13:49;;;;;;;1.37;0.97;;;9.50;99.90;9.40;100534.00;;;;4894022;28;94193;-67
2024/02/04 10:16:16;;;;;;;2.00;1.53;;;9.50;99.90;9.40;100546.00;;;;4892770;28;93352;-68
2024/02/04 10:18:44;;;;;;;1.20;0.97;;;9.60;99.90;9.40;100547.00;;;;4889226;28;97086;-69
2024/02/04 10:21:21;;;;;;;2.27;1.00;;;9.50;99.90;9.40;100536.00;;;;4894743;28;93195;-68
2024/02/04 10:23:48;;;;;;;1.47;0.80;;;9.60;99.90;9.50;100536.00;;;;4908815;28;93368;-68
2024/02/04 10:26:14;;;;;;;1.00;0.73;;;9.60;99.90;9.50;100525.00;;;;4895981;28;93367;-67
2024/02/04 10:28:40;;;;;;;1.53;1.20;;;9.70;99.90;9.50;100537.00;;;;4892253;28;93550;-67
2024/02/04 10:31:09;;;;;;;1.60;1.27;;;9.60;99.90;9.60;100538.00;;;;4891171;28;93069;-68
2024/02/04 10:33:36;;;;;;;1.33;0.83;;;9.60;99.90;9.60;100535.00;;;;4894103;28;93123;-67
2024/02/04 10:36:03;;;;;;;0.73;0.73;;;9.70;99.90;9.60;100514.00;;;;4898390;28;93472;-68
2024/02/04 10:38:29;;;;;;;2.37;1.13;;;9.70;99.90;9.70;100517.00;;;;4899398;28;93170;-68
2024/02/04 10:40:55;;;;;;;2.30;1.07;;;9.70;99.90;9.70;100524.00;;;;4896941;28;93084;-68
2024/02/04 10:43:22;;;;;;;1.17;0.97;;;9.80;99.90;9.80;100512.00;;;;4893983;28;95990;-67
2024/02/04 10:45:52;;;;;;;1.40;1.20;;;9.80;99.90;9.80;100498.00;;;;4893556;28;94136;-67
2024/02/04 10:48:21;;;;;;;0.87;0.70;;;9.90;99.90;9.80;100493.00;;;;4892379;28;100816;-67
2024/02/04 10:50:49;;;;;;;1.33;0.93;;;9.90;99.90;9.90;100491.00;;;;4890896;28;108072;-68
2024/02/04 10:53:15;;;;;;;1.03;0.87;;;10.00;99.90;9.90;100485.00;;;;4889920;28;123080;-67